LESA/SLM METAR and TAF weather

Enter ICAO airport designator
Station Type Date Time Source
LESA METAR 2019/12/08 07:00 UTC NOAA

LESA 080700Z 00000KT 9999 FEW019 BKN040 01/00 Q1026


Station Type Date Time Source
LESA Decoded METAR 2019/12/08 07:00 UTC NOAA

Salamanca / Matacan, Spain (LESA) 40-57N 005-30W 795M
Dec 08, 2019 - 02:00 AM EST / 2019.12.08 0700 UTC
Wind: Calm:0
Visibility: greater than 7 mile(s):0
Sky conditions: mostly cloudy
Temperature: 33 F (1 C)
Dew Point: 32 F (0 C)
Relative Humidity: 93%
Pressure (altimeter): 30.30 in. Hg (1026 hPa)
ob: LESA 080700Z 00000KT 9999 FEW019 BKN040 01/00 Q1026
cycle: 7

Station Type Date Time Source
LESA TAF 2019/12/08 06:27 UTC NOAA

TAF LESA 080500Z 0806/0906 VRB05KT 9999 SCT045 TX12/0815Z TNM03/0806Z PROB40 0806/0810 3000 BR BKN008 PROB30
TEMPO 0812/0818 3000 RA PROB40
TEMPO 0821/0906 BKN003 PROB30
TEMPO 0900/0906 0100 FG VV001

Example: see airport list